createdAt,value
2023-07-21T00:01:38.176Z,99366.02
2023-07-21T00:04:07.380Z,99367.34
2023-07-21T00:06:35.892Z,99367.12
2023-07-21T00:09:07.646Z,99366.38
2023-07-21T00:11:36.041Z,99365.98
2023-07-21T00:14:04.495Z,99372.40
2023-07-21T00:16:35.187Z,99373.86
2023-07-21T00:19:03.770Z,99376.41
2023-07-21T00:21:32.149Z,99380.83
2023-07-21T00:24:00.614Z,99381.27
2023-07-21T00:26:29.015Z,99383.11
2023-07-21T00:28:58.513Z,99378.98
2023-07-21T00:31:27.016Z,99379.77
2023-07-21T00:33:56.203Z,99377.71
2023-07-21T00:36:25.355Z,99378.60
2023-07-21T00:38:53.980Z,99376.35
2023-07-21T00:41:22.325Z,99376.85
2023-07-21T00:43:50.787Z,99376.39
2023-07-21T00:46:19.514Z,99379.77
2023-07-21T00:48:48.051Z,99380.65
2023-07-21T00:51:16.791Z,99378.18
2023-07-21T00:53:45.904Z,99378.00
2023-07-21T00:56:14.265Z,99377.78
2023-07-21T00:58:42.658Z,99378.91
2023-07-21T01:01:11.091Z,99383.13
2023-07-21T01:03:40.735Z,99387.98
2023-07-21T01:06:10.536Z,99387.16
2023-07-21T01:08:39.389Z,99385.80
2023-07-21T01:11:12.484Z,99386.11
2023-07-21T01:13:42.454Z,99389.59
2023-07-21T01:16:12.873Z,99390.83
2023-07-21T01:18:42.595Z,99381.95
2023-07-21T01:21:15.908Z,99389.81
2023-07-21T01:23:57.788Z,99392.46
2023-07-21T01:26:27.449Z,99393.02
2023-07-21T01:28:56.272Z,99394.14
2023-07-21T01:31:25.116Z,99395.48
2023-07-21T01:33:55.146Z,99387.15
2023-07-21T01:36:24.705Z,99389.02
2023-07-21T01:38:53.697Z,99392.95
2023-07-21T01:41:22.535Z,99401.36
2023-07-21T01:43:51.390Z,99407.55
2023-07-21T01:46:19.997Z,99408.27
2023-07-21T01:48:49.356Z,99410.27
2023-07-21T01:51:19.974Z,99411.23
2023-07-21T01:53:57.554Z,99411.37
2023-07-21T01:56:37.025Z,99411.15
2023-07-21T01:59:08.790Z,99411.58
2023-07-21T02:01:38.217Z,99406.21
2023-07-21T02:04:06.620Z,99413.46
2023-07-21T02:06:36.010Z,99417.88
2023-07-21T02:09:04.809Z,99428.47
2023-07-21T02:11:33.216Z,99431.95
2023-07-21T02:14:19.664Z,99432.98
2023-07-21T02:16:48.335Z,99439.48
2023-07-21T02:19:17.636Z,99443.16
2023-07-21T02:21:46.991Z,99443.13
2023-07-21T02:24:15.538Z,99446.77
2023-07-21T02:26:44.093Z,99454.45
2023-07-21T02:29:12.538Z,99456.43
2023-07-21T02:31:41.089Z,99461.46
2023-07-21T02:34:09.635Z,99458.13
2023-07-21T02:36:38.095Z,99464.63
2023-07-21T02:39:06.557Z,99469.80
2023-07-21T02:41:34.934Z,99470.83
2023-07-21T02:44:03.381Z,99473.18
2023-07-21T02:46:32.864Z,99472.17
2023-07-21T02:49:01.416Z,99474.50
2023-07-21T02:51:30.056Z,99479.58
2023-07-21T02:53:58.484Z,99482.52
2023-07-21T02:56:27.076Z,99479.65
2023-07-21T02:59:02.255Z,99477.77
2023-07-21T03:01:31.698Z,99478.04
2023-07-21T03:04:00.561Z,99481.65
2023-07-21T03:06:31.790Z,99491.92
2023-07-21T03:09:00.839Z,99492.46
2023-07-21T03:11:31.195Z,99495.64
2023-07-21T03:14:14.256Z,99503.42
2023-07-21T03:16:42.917Z,99504.42
2023-07-21T03:19:12.579Z,99504.50
2023-07-21T03:21:43.755Z,99512.15
2023-07-21T03:24:12.363Z,99507.48
2023-07-21T03:26:41.047Z,99515.19
2023-07-21T03:29:09.572Z,99513.03
2023-07-21T03:31:39.384Z,99518.50
2023-07-21T03:34:11.688Z,99527.45
2023-07-21T03:36:40.151Z,99528.95
2023-07-21T03:39:08.656Z,99530.88
2023-07-21T03:41:37.437Z,99538.44
2023-07-21T03:44:06.304Z,99539.95
2023-07-21T03:46:35.022Z,99534.52
2023-07-21T03:49:06.165Z,99541.17
2023-07-21T03:51:35.851Z,99541.66
2023-07-21T03:54:04.615Z,99532.19
2023-07-21T03:56:33.042Z,99541.04
2023-07-21T03:59:01.574Z,99547.26
2023-07-21T04:01:30.235Z,99555.59
2023-07-21T04:03:58.858Z,99562.37
2023-07-21T04:06:27.758Z,99561.77
2023-07-21T04:08:56.553Z,99563.77
2023-07-21T04:11:25.024Z,99564.38
2023-07-21T04:13:53.538Z,99566.96
2023-07-21T04:16:22.046Z,99567.46
2023-07-21T04:18:50.603Z,99568.59
2023-07-21T04:21:19.071Z,99569.11
2023-07-21T04:23:47.577Z,99571.16
2023-07-21T04:26:17.475Z,99567.14
2023-07-21T04:28:48.981Z,99576.43
2023-07-21T04:31:23.061Z,99577.73
2023-07-21T04:34:05.366Z,99579.30
2023-07-21T04:36:36.502Z,99574.36
2023-07-21T04:39:10.682Z,99572.67
2023-07-21T04:41:39.453Z,99569.55
2023-07-21T04:44:07.920Z,99584.27
2023-07-21T04:46:36.424Z,99584.78
2023-07-21T04:49:08.734Z,99580.01
2023-07-21T04:51:46.632Z,99587.52
2023-07-21T04:54:15.340Z,99588.14
2023-07-21T04:56:46.238Z,99590.13
2023-07-21T04:59:18.214Z,99596.77
2023-07-21T05:01:48.353Z,99594.19
2023-07-21T05:04:18.075Z,99599.57
2023-07-21T05:06:51.032Z,99591.42
2023-07-21T05:09:21.382Z,99602.25
2023-07-21T05:11:50.006Z,99596.04
2023-07-21T05:14:38.144Z,99599.91
2023-07-21T05:17:12.636Z,99599.58
2023-07-21T05:19:50.157Z,99599.70
2023-07-21T05:22:33.222Z,99602.52
2023-07-21T05:25:19.420Z,99603.45
2023-07-21T05:27:49.181Z,99602.30
2023-07-21T05:30:18.180Z,99605.36
2023-07-21T05:32:51.425Z,99605.55
2023-07-21T05:35:26.553Z,99607.30
2023-07-21T05:37:59.067Z,99611.55
2023-07-21T05:40:27.783Z,99602.79
2023-07-21T05:42:57.426Z,99607.81
2023-07-21T05:45:26.088Z,99612.85
2023-07-21T05:47:56.985Z,99604.60
2023-07-21T05:50:27.809Z,99606.70
2023-07-21T05:52:56.273Z,99612.20
2023-07-21T05:55:29.208Z,99615.67
2023-07-21T05:57:58.438Z,99614.91
2023-07-21T06:00:27.479Z,99612.75
2023-07-21T06:02:59.839Z,99621.02
2023-07-21T06:05:28.969Z,99625.70
2023-07-21T06:08:11.717Z,99627.08
2023-07-21T06:11:02.821Z,99630.70
2023-07-21T06:13:58.859Z,99625.98
2023-07-21T06:16:27.941Z,99618.00
2023-07-21T06:18:56.881Z,99620.88
2023-07-21T06:21:25.728Z,99615.70
2023-07-21T06:23:55.179Z,99623.41
2023-07-21T06:26:24.557Z,99629.02
2023-07-21T06:28:53.342Z,99629.40
2023-07-21T06:31:24.071Z,99628.30
2023-07-21T06:34:23.812Z,99624.21
2023-07-21T06:37:30.610Z,99634.90
2023-07-21T06:40:12.419Z,99639.23
2023-07-21T06:43:16.653Z,99639.75
2023-07-21T06:46:08.422Z,99643.05
2023-07-21T06:48:49.944Z,99637.40
2023-07-21T06:51:28.561Z,99642.83
2023-07-21T06:53:57.944Z,99637.29
2023-07-21T06:56:26.349Z,99628.04
2023-07-21T06:58:54.812Z,99634.40
2023-07-21T07:01:23.668Z,99632.69
2023-07-21T07:03:53.214Z,99636.47
2023-07-21T07:06:21.863Z,99637.11
2023-07-21T07:08:50.580Z,99634.83
2023-07-21T07:11:19.120Z,99637.09
2023-07-21T07:13:47.756Z,99635.70
2023-07-21T07:16:18.493Z,99632.12
2023-07-21T07:18:50.629Z,99631.02
2023-07-21T07:21:19.689Z,99635.52
2023-07-21T07:23:48.275Z,99633.02
2023-07-21T07:26:16.831Z,99628.95
2023-07-21T07:28:45.495Z,99629.84
2023-07-21T07:31:14.175Z,99617.77
2023-07-21T07:33:44.166Z,99629.17
2023-07-21T07:36:13.237Z,99623.92
2023-07-21T07:38:42.221Z,99623.62
2023-07-21T07:41:11.565Z,99635.76
2023-07-21T07:43:41.000Z,99646.95
2023-07-21T07:46:09.752Z,99647.23
2023-07-21T07:48:38.619Z,99637.55
2023-07-21T07:51:08.817Z,99629.34
2023-07-21T07:53:37.906Z,99634.85
2023-07-21T07:56:06.830Z,99636.45
2023-07-21T07:58:35.490Z,99638.22
2023-07-21T08:01:06.156Z,99641.80
2023-07-21T08:03:34.850Z,99643.95
2023-07-21T08:06:03.402Z,99651.10
2023-07-21T08:08:31.978Z,99651.23
2023-07-21T08:11:02.496Z,99649.02
2023-07-21T08:13:30.895Z,99652.89
2023-07-21T08:15:59.479Z,99659.24
2023-07-21T08:18:28.130Z,99664.51
2023-07-21T08:20:56.659Z,99662.27
2023-07-21T08:23:29.996Z,99666.13
2023-07-21T08:25:59.242Z,99671.05
2023-07-21T08:28:27.833Z,99671.98
2023-07-21T08:30:59.557Z,99671.35
2023-07-21T08:33:29.026Z,99669.05
2023-07-21T08:35:57.479Z,99670.05
2023-07-21T08:38:27.370Z,99673.39
2023-07-21T08:41:19.176Z,99669.92
2023-07-21T08:43:48.735Z,99662.55
2023-07-21T08:46:17.241Z,99668.83
2023-07-21T08:48:46.379Z,99674.28
2023-07-21T08:51:15.110Z,99674.99
2023-07-21T08:53:43.798Z,99683.61
2023-07-21T08:56:12.761Z,99688.93
2023-07-21T08:58:41.203Z,99691.26
2023-07-21T09:01:10.760Z,99697.79
2023-07-21T09:03:45.454Z,99703.98
2023-07-21T09:06:15.701Z,99704.24
2023-07-21T09:08:48.911Z,99697.51
2023-07-21T09:11:18.381Z,99686.73
2023-07-21T09:13:55.797Z,99694.17
2023-07-21T09:16:24.458Z,99693.73
2023-07-21T09:18:55.632Z,99687.10
2023-07-21T09:21:26.525Z,99690.02
2023-07-21T09:24:06.194Z,99688.20
2023-07-21T09:26:34.787Z,99685.86
2023-07-21T09:29:16.299Z,99680.91
2023-07-21T09:31:45.828Z,99679.42
2023-07-21T09:34:14.703Z,99689.30
2023-07-21T09:36:46.829Z,99686.66
2023-07-21T09:39:17.167Z,99685.80
2023-07-21T09:41:45.892Z,99682.56
2023-07-21T09:44:16.248Z,99680.06
2023-07-21T09:46:44.995Z,99679.52
2023-07-21T09:49:13.711Z,99679.84
2023-07-21T09:51:43.872Z,99679.52
2023-07-21T09:54:13.598Z,99680.26
2023-07-21T09:56:45.810Z,99679.83
2023-07-21T09:59:14.356Z,99669.04
2023-07-21T10:01:42.947Z,99677.57
2023-07-21T10:04:11.929Z,99676.15
2023-07-21T10:06:41.500Z,99680.88
2023-07-21T10:09:10.834Z,99675.85
2023-07-21T10:11:44.836Z,99675.43
2023-07-21T10:14:32.823Z,99668.70
2023-07-21T10:17:01.708Z,99659.78
2023-07-21T10:19:30.980Z,99663.34
2023-07-21T10:22:00.588Z,99663.23
2023-07-21T10:24:30.243Z,99662.98
2023-07-21T10:27:03.845Z,99660.42
2023-07-21T10:29:32.951Z,99654.49
2023-07-21T10:32:06.262Z,99646.90
2023-07-21T10:34:41.468Z,99641.87
2023-07-21T10:37:10.422Z,99639.30
2023-07-21T10:39:43.831Z,99634.53
2023-07-21T10:42:13.308Z,99631.88
2023-07-21T10:44:46.363Z,99631.35
2023-07-21T10:47:17.363Z,99634.20
2023-07-21T10:49:47.625Z,99632.94
2023-07-21T10:52:17.014Z,99636.23
2023-07-21T10:54:47.438Z,99635.83
2023-07-21T10:57:16.141Z,99637.78
2023-07-21T10:59:44.613Z,99637.27
2023-07-21T11:02:13.357Z,99631.90
2023-07-21T11:04:42.470Z,99633.73
2023-07-21T11:07:11.239Z,99638.38
2023-07-21T11:09:45.403Z,99636.52
2023-07-21T11:12:14.130Z,99640.00
2023-07-21T11:14:42.866Z,99646.08
2023-07-21T11:17:11.362Z,99645.94
2023-07-21T11:19:40.216Z,99634.84
2023-07-21T11:22:11.923Z,99628.65
2023-07-21T11:24:40.645Z,99630.31
2023-07-21T11:27:12.434Z,99633.20
2023-07-21T11:29:44.884Z,99625.63
2023-07-21T11:32:24.324Z,99624.06
2023-07-21T11:34:58.044Z,99620.15
2023-07-21T11:37:27.380Z,99622.52
2023-07-21T11:39:57.491Z,99620.72
2023-07-21T11:42:26.276Z,99613.33
2023-07-21T11:44:55.069Z,99610.65
2023-07-21T11:47:24.152Z,99609.84
2023-07-21T11:49:54.770Z,99606.36
2023-07-21T11:52:26.349Z,99601.63
2023-07-21T11:54:56.657Z,99598.21
2023-07-21T11:57:25.212Z,99594.66
2023-07-21T11:59:53.581Z,99600.44
2023-07-21T12:02:24.956Z,99597.61
2023-07-21T12:04:54.172Z,99598.23
2023-07-21T12:07:23.897Z,99595.35
2023-07-21T12:09:52.227Z,99593.77
2023-07-21T12:12:20.576Z,99595.21
2023-07-21T12:14:49.153Z,99596.81
2023-07-21T12:17:20.532Z,99596.02
2023-07-21T12:19:50.784Z,99592.64
2023-07-21T12:22:19.281Z,99589.12
2023-07-21T12:24:47.804Z,99590.10
2023-07-21T12:27:16.402Z,99589.12
2023-07-21T12:29:46.668Z,99584.11
2023-07-21T12:32:15.847Z,99587.27
2023-07-21T12:34:44.622Z,99587.11
2023-07-21T12:37:13.243Z,99585.60
2023-07-21T12:39:42.167Z,99583.45
2023-07-21T12:42:10.665Z,99584.33
2023-07-21T12:44:39.341Z,99587.96
2023-07-21T12:47:08.117Z,99591.85
2023-07-21T12:49:36.735Z,99586.23
2023-07-21T12:52:05.786Z,99586.44
2023-07-21T12:54:34.150Z,99576.92
2023-07-21T12:57:03.061Z,99579.20
2023-07-21T12:59:33.239Z,99578.07
2023-07-21T13:02:01.888Z,99569.54
2023-07-21T13:04:30.475Z,99565.24
2023-07-21T13:06:59.424Z,99563.48
2023-07-21T13:09:27.834Z,99564.88
2023-07-21T13:11:57.835Z,99565.67
2023-07-21T13:14:26.372Z,99565.83
2023-07-21T13:16:54.858Z,99562.95
2023-07-21T13:19:24.907Z,99563.89
2023-07-21T13:21:57.153Z,99568.13
2023-07-21T13:24:27.423Z,99571.20
2023-07-21T13:26:55.917Z,99577.24
2023-07-21T13:29:24.432Z,99570.45
2023-07-21T13:31:53.002Z,99567.84
2023-07-21T13:34:21.532Z,99569.39
2023-07-21T13:36:51.390Z,99566.75
2023-07-21T13:39:19.938Z,99571.19
2023-07-21T13:41:49.109Z,99567.71
2023-07-21T13:44:19.354Z,99560.48
2023-07-21T13:46:48.422Z,99554.73
2023-07-21T13:49:20.713Z,99553.64
2023-07-21T13:51:49.313Z,99559.77
2023-07-21T13:54:17.780Z,99557.05
2023-07-21T13:56:46.326Z,99553.06
2023-07-21T13:59:14.750Z,99544.28
2023-07-21T14:01:43.164Z,99552.88
2023-07-21T14:04:11.820Z,99555.55
2023-07-21T14:06:40.408Z,99558.89
2023-07-21T14:09:08.845Z,99557.81
2023-07-21T14:11:40.170Z,99558.86
2023-07-21T14:14:08.865Z,99551.38
2023-07-21T14:16:37.320Z,99544.73
2023-07-21T14:19:06.104Z,99546.52
2023-07-21T14:21:35.346Z,99550.39
2023-07-21T14:24:06.155Z,99547.46
2023-07-21T14:26:35.583Z,99549.75
2023-07-21T14:29:04.122Z,99551.52
2023-07-21T14:31:34.926Z,99547.86
2023-07-21T14:34:04.623Z,99545.88
2023-07-21T14:36:33.265Z,99550.45
2023-07-21T14:39:01.995Z,99549.83
2023-07-21T14:41:32.860Z,99547.72
2023-07-21T14:44:01.578Z,99546.66
2023-07-21T14:46:30.317Z,99550.84
2023-07-21T14:48:59.528Z,99543.17
2023-07-21T14:51:28.321Z,99540.66
2023-07-21T14:53:56.735Z,99541.70
2023-07-21T14:56:26.281Z,99540.45
2023-07-21T14:58:54.849Z,99535.55
2023-07-21T15:01:23.427Z,99535.52
2023-07-21T15:03:51.985Z,99532.84
2023-07-21T15:06:21.693Z,99533.77
2023-07-21T15:08:50.748Z,99537.79
2023-07-21T15:11:19.226Z,99531.71
2023-07-21T15:13:47.750Z,99533.09
2023-07-21T15:16:16.306Z,99529.31
2023-07-21T15:18:44.719Z,99537.05
2023-07-21T15:21:13.136Z,99536.31
2023-07-21T15:23:42.169Z,99536.12
2023-07-21T15:26:10.638Z,99538.37
2023-07-21T15:28:39.111Z,99534.14
2023-07-21T15:31:08.541Z,99533.11
2023-07-21T15:33:37.553Z,99538.34
2023-07-21T15:36:06.045Z,99536.73
2023-07-21T15:38:34.420Z,99535.13
2023-07-21T15:41:03.584Z,99534.84
2023-07-21T15:43:32.176Z,99539.84
2023-07-21T15:46:01.162Z,99531.98
2023-07-21T15:48:30.516Z,99531.08
2023-07-21T15:50:59.131Z,99533.00
2023-07-21T15:53:27.609Z,99537.81
2023-07-21T15:55:56.120Z,99537.20
2023-07-21T15:58:24.866Z,99536.60
2023-07-21T16:01:00.542Z,99532.05
2023-07-21T16:03:29.605Z,99532.69
2023-07-21T16:05:58.861Z,99540.47
2023-07-21T16:08:27.382Z,99542.55
2023-07-21T16:10:56.137Z,99541.86
2023-07-21T16:13:24.567Z,99542.85
2023-07-21T16:15:53.550Z,99543.62
2023-07-21T16:18:22.936Z,99545.52
2023-07-21T16:20:51.315Z,99545.27
2023-07-21T16:23:20.549Z,99540.39
2023-07-21T16:25:49.066Z,99542.30
2023-07-21T16:28:17.492Z,99539.58
2023-07-21T16:30:46.321Z,99532.96
2023-07-21T16:33:14.807Z,99539.37
2023-07-21T16:35:43.356Z,99547.19
2023-07-21T16:38:15.091Z,99545.73
2023-07-21T16:40:43.788Z,99543.99
2023-07-21T16:43:12.315Z,99543.45
2023-07-21T16:45:44.794Z,99546.28
2023-07-21T16:48:13.390Z,99549.79
2023-07-21T16:50:41.833Z,99544.29
2023-07-21T16:53:10.265Z,99540.02
2023-07-21T16:55:38.792Z,99538.34
2023-07-21T16:58:07.165Z,99534.23
2023-07-21T17:00:35.589Z,99533.09
2023-07-21T17:03:04.340Z,99541.14
2023-07-21T17:05:35.784Z,99540.41
2023-07-21T17:08:05.582Z,99542.14
2023-07-21T17:10:33.958Z,99539.86
2023-07-21T17:13:02.467Z,99540.02
2023-07-21T17:15:31.489Z,99533.95
2023-07-21T17:18:01.264Z,99527.94
2023-07-21T17:20:29.978Z,99522.89
2023-07-21T17:22:58.407Z,99514.27
2023-07-21T17:25:29.597Z,99516.39
2023-07-21T17:27:57.973Z,99521.96
2023-07-21T17:30:26.570Z,99517.27
2023-07-21T17:32:56.134Z,99506.41
2023-07-21T17:35:24.626Z,99506.95
2023-07-21T17:37:53.236Z,99503.85
2023-07-21T17:40:23.014Z,99505.66
2023-07-21T17:42:51.968Z,99506.71
2023-07-21T17:45:20.820Z,99506.33
2023-07-21T17:47:49.288Z,99503.30
2023-07-21T17:50:17.883Z,99498.08
2023-07-21T17:52:46.365Z,99506.05
2023-07-21T17:55:17.634Z,99510.20
2023-07-21T17:57:46.222Z,99506.80
2023-07-21T18:00:15.230Z,99511.19
2023-07-21T18:02:44.854Z,99504.68
2023-07-21T18:05:14.345Z,99514.42
2023-07-21T18:07:42.828Z,99512.13
2023-07-21T18:10:11.735Z,99505.90
2023-07-21T18:12:40.335Z,99503.55
2023-07-21T18:15:09.342Z,99502.95
2023-07-21T18:17:37.925Z,99499.56
2023-07-21T18:20:08.388Z,99497.02
2023-07-21T18:22:36.918Z,99498.58
2023-07-21T18:25:07.537Z,99506.52
2023-07-21T18:27:35.902Z,99513.97
2023-07-21T18:30:05.169Z,99511.71
2023-07-21T18:32:36.220Z,99507.05
2023-07-21T18:35:06.253Z,99512.15
2023-07-21T18:37:35.776Z,99522.77
2023-07-21T18:40:11.079Z,99522.23
2023-07-21T18:42:39.797Z,99524.48
2023-07-21T18:45:09.221Z,99531.36
2023-07-21T18:47:37.653Z,99535.40
2023-07-21T18:50:06.677Z,99532.86
2023-07-21T18:52:35.023Z,99531.77
2023-07-21T18:55:03.628Z,99523.59
2023-07-21T18:57:32.389Z,99527.52
2023-07-21T19:00:01.081Z,99534.11
2023-07-21T19:02:29.645Z,99535.59
2023-07-21T19:04:58.077Z,99536.77
2023-07-21T19:07:26.643Z,99522.96
2023-07-21T19:09:55.030Z,99509.73
2023-07-21T19:12:23.497Z,99505.14
2023-07-21T19:14:53.136Z,99497.15
2023-07-21T19:17:21.772Z,99493.19
2023-07-21T19:19:52.503Z,99498.23
2023-07-21T19:22:21.373Z,99491.95
2023-07-21T19:24:49.807Z,99485.21
2023-07-21T19:27:18.817Z,99473.02
2023-07-21T19:29:47.392Z,99468.92
2023-07-21T19:32:17.466Z,99467.41
2023-07-21T19:34:49.830Z,99457.40
2023-07-21T19:37:18.603Z,99454.84
2023-07-21T19:39:49.852Z,99449.84
2023-07-21T19:42:19.804Z,99445.56
2023-07-21T19:44:48.573Z,99453.42
2023-07-21T19:47:16.996Z,99453.48
2023-07-21T19:49:45.666Z,99451.14
2023-07-21T19:52:14.158Z,99458.44
2023-07-21T19:54:43.054Z,99455.19
2023-07-21T19:57:11.850Z,99462.13
2023-07-21T19:59:40.355Z,99466.30
2023-07-21T20:02:09.033Z,99470.07
2023-07-21T20:04:37.507Z,99485.05
2023-07-21T20:07:06.001Z,99498.71
2023-07-21T20:09:34.373Z,99505.27
2023-07-21T20:12:02.830Z,99499.66
2023-07-21T20:14:31.294Z,99498.08
2023-07-21T20:16:59.699Z,99492.63
2023-07-21T20:19:28.221Z,99485.63
2023-07-21T20:21:56.628Z,99482.84
2023-07-21T20:24:25.178Z,99477.10
2023-07-21T20:26:54.029Z,99474.43
2023-07-21T20:29:22.498Z,99466.00
2023-07-21T20:31:50.959Z,99466.05
2023-07-21T20:34:19.855Z,99465.28
2023-07-21T20:36:48.663Z,99466.40
2023-07-21T20:39:17.230Z,99471.61
2023-07-21T20:41:45.720Z,99477.06
2023-07-21T20:44:14.150Z,99485.58
2023-07-21T20:46:43.324Z,99492.80
2023-07-21T20:49:11.821Z,99490.50
2023-07-21T20:51:40.573Z,99489.27
2023-07-21T20:54:09.049Z,99478.86
2023-07-21T20:56:37.456Z,99468.85
2023-07-21T20:59:06.106Z,99459.00
2023-07-21T21:01:34.877Z,99455.77
2023-07-21T21:04:03.547Z,99465.01
2023-07-21T21:06:32.058Z,99463.38
2023-07-21T21:09:00.431Z,99457.27
2023-07-21T21:11:28.929Z,99447.64
2023-07-21T21:13:57.365Z,99456.11
2023-07-21T21:16:26.224Z,99465.86
2023-07-21T21:18:54.803Z,99461.64
2023-07-21T21:21:23.272Z,99457.86
2023-07-21T21:23:51.722Z,99457.45
2023-07-21T21:26:20.161Z,99456.88
2023-07-21T21:28:49.905Z,99450.50
2023-07-21T21:31:18.433Z,99454.30
2023-07-21T21:33:46.954Z,99438.92
2023-07-21T21:36:15.497Z,99444.52
2023-07-21T21:38:45.539Z,99449.02
2023-07-21T21:41:14.344Z,99448.56
2023-07-21T21:43:42.725Z,99446.13
2023-07-21T21:46:11.271Z,99447.06
2023-07-21T21:48:39.824Z,99443.29
2023-07-21T21:51:08.237Z,99442.81
2023-07-21T21:53:36.671Z,99436.38
2023-07-21T21:56:05.396Z,99438.67
2023-07-21T21:58:33.920Z,99443.92
2023-07-21T22:01:05.408Z,99443.63
2023-07-21T22:03:35.305Z,99443.61
2023-07-21T22:06:04.210Z,99438.68
2023-07-21T22:08:32.721Z,99428.00
2023-07-21T22:11:03.042Z,99421.56
2023-07-21T22:13:34.759Z,99412.58
2023-07-21T22:16:04.127Z,99412.43
2023-07-21T22:18:32.569Z,99407.60
2023-07-21T22:21:00.992Z,99403.56
2023-07-21T22:23:29.583Z,99401.07
2023-07-21T22:26:04.577Z,99394.27
2023-07-21T22:28:33.356Z,99391.73
2023-07-21T22:31:01.866Z,99394.99
2023-07-21T22:33:30.306Z,99390.29
2023-07-21T22:35:58.823Z,99385.40
2023-07-21T22:38:27.216Z,99379.11
2023-07-21T22:40:55.746Z,99374.31
2023-07-21T22:43:24.184Z,99367.89
2023-07-21T22:45:57.130Z,99353.87
2023-07-21T22:48:25.605Z,99349.63
2023-07-21T22:50:54.105Z,99351.25
2023-07-21T22:53:22.863Z,99343.88
2023-07-21T22:55:53.391Z,99330.17
2023-07-21T22:58:21.851Z,99326.48
2023-07-21T23:00:50.344Z,99314.21
2023-07-21T23:03:18.880Z,99304.36
2023-07-21T23:05:47.863Z,99298.67
2023-07-21T23:08:16.565Z,99295.77
2023-07-21T23:10:45.613Z,99310.23
2023-07-21T23:13:14.038Z,99322.14
2023-07-21T23:15:42.533Z,99321.25
2023-07-21T23:18:10.942Z,99320.43
2023-07-21T23:20:39.960Z,99318.65
2023-07-21T23:23:08.405Z,99324.08
2023-07-21T23:25:36.958Z,99329.91
2023-07-21T23:28:05.374Z,99338.61
2023-07-21T23:30:34.056Z,99345.66
2023-07-21T23:33:02.520Z,99349.13
2023-07-21T23:35:31.616Z,99343.04
2023-07-21T23:37:59.999Z,99338.20
2023-07-21T23:40:29.197Z,99336.36
2023-07-21T23:42:57.693Z,99330.78
2023-07-21T23:45:26.278Z,99333.16
2023-07-21T23:47:54.707Z,99328.71
2023-07-21T23:50:24.159Z,99328.80
2023-07-21T23:52:52.582Z,99325.22
2023-07-21T23:55:21.085Z,99315.82
2023-07-21T23:57:49.601Z,99308.20
